createdAt,value
2022-12-25T00:00:20.354Z,5.34
2022-12-25T00:05:23.960Z,5.40
2022-12-25T00:10:28.348Z,5.32
2022-12-25T00:15:31.081Z,5.36
2022-12-25T00:20:33.998Z,5.40
2022-12-25T00:25:42.050Z,5.42
2022-12-25T00:30:44.792Z,5.19
2022-12-25T00:35:58.233Z,5.23
2022-12-25T00:41:06.013Z,5.15
2022-12-25T00:46:09.673Z,5.13
2022-12-25T00:51:12.688Z,5.23
2022-12-25T00:56:16.746Z,5.26
2022-12-25T01:01:19.585Z,5.18
2022-12-25T01:06:22.413Z,5.32
2022-12-25T01:11:27.211Z,5.31
2022-12-25T01:16:30.399Z,5.45
2022-12-25T01:21:33.485Z,5.38
2022-12-25T01:26:37.555Z,5.44
2022-12-25T01:31:40.333Z,5.49
2022-12-25T01:36:43.157Z,5.52
2022-12-25T01:41:48.070Z,5.56
2022-12-25T01:46:50.791Z,5.67
2022-12-25T01:51:55.576Z,5.64
2022-12-25T01:57:02.366Z,5.64
2022-12-25T02:02:05.389Z,5.64
2022-12-25T02:07:10.203Z,5.66
2022-12-25T02:12:19.181Z,5.70
2022-12-25T02:17:25.926Z,5.77
2022-12-25T02:22:35.821Z,5.78
2022-12-25T02:28:07.854Z,5.86
2022-12-25T02:33:33.118Z,5.84
2022-12-25T02:38:38.796Z,6.01
2022-12-25T02:44:00.664Z,5.97
2022-12-25T02:49:24.387Z,5.91
2022-12-25T02:55:03.335Z,6.01
2022-12-25T03:00:26.741Z,6.10
2022-12-25T03:05:59.541Z,6.05
2022-12-25T03:11:21.953Z,6.10
2022-12-25T03:16:54.846Z,6.17
2022-12-25T03:22:15.949Z,6.20
2022-12-25T03:27:18.626Z,6.24
2022-12-25T03:32:28.328Z,6.29
2022-12-25T03:37:56.357Z,6.22
2022-12-25T03:43:23.958Z,6.28
2022-12-25T03:48:46.911Z,6.35
2022-12-25T03:54:11.387Z,6.37
2022-12-25T03:59:31.882Z,6.37
2022-12-25T04:04:53.409Z,6.42
2022-12-25T04:10:13.966Z,6.35
2022-12-25T04:15:34.341Z,6.46
2022-12-25T04:20:55.910Z,6.42
2022-12-25T04:26:16.632Z,6.52
2022-12-25T04:31:36.855Z,6.47
2022-12-25T04:36:41.051Z,6.46
2022-12-25T04:41:43.739Z,6.48
2022-12-25T04:46:46.525Z,6.54
2022-12-25T04:51:50.619Z,6.46
2022-12-25T04:56:53.349Z,6.41
2022-12-25T05:01:56.112Z,6.45
2022-12-25T05:07:00.311Z,6.62
2022-12-25T05:12:03.020Z,6.54
2022-12-25T05:17:05.740Z,6.64
2022-12-25T05:22:09.815Z,6.67
2022-12-25T05:27:12.506Z,6.68
2022-12-25T05:32:15.300Z,6.79
2022-12-25T05:37:19.335Z,6.71
2022-12-25T05:42:22.519Z,6.81
2022-12-25T05:47:25.220Z,6.79
2022-12-25T05:52:32.035Z,6.87
2022-12-25T05:57:34.842Z,6.92
2022-12-25T06:02:37.712Z,7.04
2022-12-25T06:07:41.807Z,6.83
2022-12-25T06:12:44.572Z,6.90
2022-12-25T06:17:47.363Z,6.88
2022-12-25T06:22:51.335Z,6.92
2022-12-25T06:27:54.229Z,7.11
2022-12-25T06:32:56.929Z,7.01
2022-12-25T06:38:01.139Z,6.95
2022-12-25T06:43:03.810Z,6.96
2022-12-25T06:48:06.761Z,6.91
2022-12-25T06:53:10.854Z,6.97
2022-12-25T06:58:13.648Z,6.95
2022-12-25T07:03:19.421Z,7.03
2022-12-25T07:08:23.957Z,6.93
2022-12-25T07:13:26.743Z,6.86
2022-12-25T07:18:29.771Z,6.95
2022-12-25T07:23:33.796Z,7.00
2022-12-25T07:28:36.485Z,6.88
2022-12-25T07:33:39.209Z,7.00
2022-12-25T07:38:43.457Z,6.94
2022-12-25T07:43:46.439Z,6.90
2022-12-25T07:48:49.186Z,6.92
2022-12-25T07:53:53.542Z,7.06
2022-12-25T07:58:56.243Z,7.11
2022-12-25T08:04:00.861Z,7.16
2022-12-25T08:09:06.933Z,7.06
2022-12-25T08:14:10.228Z,7.25
2022-12-25T08:19:14.453Z,7.26
2022-12-25T08:24:19.672Z,7.25
2022-12-25T08:29:22.395Z,7.29
2022-12-25T08:34:25.065Z,7.21
2022-12-25T08:39:29.147Z,7.33
2022-12-25T08:44:31.834Z,7.40
2022-12-25T08:49:34.484Z,7.48
2022-12-25T08:54:38.696Z,7.40
2022-12-25T08:59:41.364Z,7.51
2022-12-25T09:04:47.566Z,7.37
2022-12-25T09:09:51.612Z,7.43
2022-12-25T09:14:54.294Z,7.54
2022-12-25T09:19:56.960Z,7.41
2022-12-25T09:25:00.995Z,7.56
2022-12-25T09:30:03.876Z,7.60
2022-12-25T09:35:07.300Z,7.55
2022-12-25T09:40:15.323Z,7.61
2022-12-25T09:45:21.021Z,7.63
2022-12-25T09:50:28.857Z,7.67
2022-12-25T09:55:35.261Z,7.70
2022-12-25T10:00:42.598Z,7.74
2022-12-25T10:06:03.207Z,7.74
2022-12-25T10:11:14.808Z,7.73
2022-12-25T10:16:23.475Z,7.75
2022-12-25T10:21:27.966Z,7.74
2022-12-25T10:26:33.010Z,7.77
2022-12-25T10:31:37.181Z,7.77
2022-12-25T10:36:40.372Z,7.79
2022-12-25T10:41:57.980Z,7.82
2022-12-25T10:47:01.946Z,7.74
2022-12-25T10:52:05.430Z,7.89
2022-12-25T10:57:17.128Z,7.89
2022-12-25T11:02:24.309Z,7.94
2022-12-25T11:07:27.509Z,8.01
2022-12-25T11:12:33.209Z,8.06
2022-12-25T11:17:36.981Z,8.12
2022-12-25T11:22:47.940Z,8.12
2022-12-25T11:27:59.887Z,8.18
2022-12-25T11:33:06.514Z,8.21
2022-12-25T11:38:09.642Z,8.19
2022-12-25T11:43:18.409Z,8.22
2022-12-25T11:48:24.875Z,8.21
2022-12-25T11:53:31.573Z,8.21
2022-12-25T11:58:39.552Z,8.23
2022-12-25T12:03:42.685Z,8.25
2022-12-25T12:08:47.260Z,8.24
2022-12-25T12:14:00.947Z,8.23
2022-12-25T12:19:12.790Z,8.22
2022-12-25T12:24:18.501Z,8.25
2022-12-25T12:29:26.189Z,8.27
2022-12-25T12:34:30.417Z,8.26
2022-12-25T12:39:34.974Z,8.30
2022-12-25T12:44:39.046Z,8.31
2022-12-25T12:49:41.952Z,8.27
2022-12-25T12:54:56.724Z,8.36
2022-12-25T13:00:08.628Z,8.38
2022-12-25T13:05:20.373Z,8.43
2022-12-25T13:10:26.544Z,8.40
2022-12-25T13:15:32.667Z,8.42
2022-12-25T13:20:41.609Z,8.44
2022-12-25T13:25:53.097Z,8.46
2022-12-25T13:31:04.849Z,8.48
2022-12-25T13:36:11.634Z,8.49
2022-12-25T13:41:36.897Z,8.48
2022-12-25T13:46:41.151Z,8.44
2022-12-25T13:51:44.003Z,8.49
2022-12-25T13:56:49.135Z,8.48
2022-12-25T14:01:54.135Z,8.51
2022-12-25T14:06:56.991Z,8.51
2022-12-25T14:11:59.774Z,8.50
2022-12-25T14:17:05.855Z,8.47
2022-12-25T14:22:12.649Z,8.51
2022-12-25T14:27:19.651Z,8.50
2022-12-25T14:32:25.862Z,8.52
2022-12-25T14:37:31.052Z,8.53
2022-12-25T14:42:35.923Z,8.52
2022-12-25T14:47:52.383Z,8.57
2022-12-25T14:52:55.223Z,8.54
2022-12-25T14:58:00.024Z,8.54
2022-12-25T15:03:06.626Z,8.57
2022-12-25T15:08:25.834Z,8.58
2022-12-25T15:13:28.948Z,8.61
2022-12-25T15:18:37.089Z,8.57
2022-12-25T15:23:39.763Z,8.60
2022-12-25T15:28:42.859Z,8.57
2022-12-25T15:33:46.860Z,8.55
2022-12-25T15:38:49.695Z,8.59
2022-12-25T15:43:52.402Z,8.55
2022-12-25T15:48:56.624Z,8.55
2022-12-25T15:53:59.627Z,8.55
2022-12-25T15:59:02.480Z,8.59
2022-12-25T16:04:06.716Z,8.59
2022-12-25T16:09:10.716Z,8.58
2022-12-25T16:14:14.192Z,8.58
2022-12-25T16:19:18.396Z,8.58
2022-12-25T16:24:21.147Z,8.57
2022-12-25T16:29:24.899Z,8.50
2022-12-25T16:34:29.117Z,8.50
2022-12-25T16:39:32.112Z,8.53
2022-12-25T16:44:37.710Z,8.59
2022-12-25T16:49:41.856Z,8.59
2022-12-25T16:54:46.246Z,8.60
2022-12-25T16:59:49.057Z,8.59
2022-12-25T17:04:53.209Z,8.66
2022-12-25T17:09:57.150Z,8.68
2022-12-25T17:15:01.555Z,8.74
2022-12-25T17:20:07.020Z,8.82
2022-12-25T17:25:10.467Z,8.82
2022-12-25T17:30:13.617Z,8.95
2022-12-25T17:35:20.632Z,8.87
2022-12-25T17:40:23.934Z,8.93
2022-12-25T17:45:26.679Z,8.98
2022-12-25T17:50:33.591Z,8.94
2022-12-25T17:55:41.178Z,9.06
2022-12-25T18:00:43.917Z,9.12
2022-12-25T18:05:48.106Z,9.19
2022-12-25T18:10:52.144Z,9.13
2022-12-25T18:15:54.894Z,9.32
2022-12-25T18:20:59.250Z,9.39
2022-12-25T18:26:03.271Z,9.68
2022-12-25T18:31:08.909Z,9.79
2022-12-25T18:36:13.581Z,9.72
2022-12-25T18:41:16.546Z,9.82
2022-12-25T18:46:22.119Z,9.83
2022-12-25T18:51:31.331Z,9.86
2022-12-25T18:56:39.196Z,9.96
2022-12-25T19:01:42.035Z,9.91
2022-12-25T19:06:46.372Z,10.03
2022-12-25T19:11:49.339Z,10.01
2022-12-25T19:16:54.116Z,10.09
2022-12-25T19:21:58.915Z,10.15
2022-12-25T19:27:01.819Z,10.06
2022-12-25T19:32:04.746Z,10.06
2022-12-25T19:37:09.005Z,10.08
2022-12-25T19:42:11.775Z,10.09
2022-12-25T19:47:14.639Z,10.15
2022-12-25T19:52:18.689Z,10.11
2022-12-25T19:57:21.791Z,10.06
2022-12-25T20:02:24.932Z,10.15
2022-12-25T20:07:29.222Z,10.05
2022-12-25T20:12:33.155Z,10.04
2022-12-25T20:17:36.021Z,10.06
2022-12-25T20:22:40.263Z,10.12
2022-12-25T20:27:42.934Z,10.12
2022-12-25T20:32:50.361Z,10.14
2022-12-25T20:37:54.819Z,10.07
2022-12-25T20:42:57.523Z,10.06
2022-12-25T20:48:00.730Z,10.15
2022-12-25T20:53:04.853Z,10.16
2022-12-25T20:58:07.528Z,10.15
2022-12-25T21:03:10.649Z,10.19
2022-12-25T21:08:14.778Z,10.11
2022-12-25T21:13:18.228Z,10.18
2022-12-25T21:18:22.379Z,10.21
2022-12-25T21:23:27.547Z,10.16
2022-12-25T21:28:32.251Z,10.22
2022-12-25T21:33:53.219Z,10.21
2022-12-25T21:39:00.127Z,10.18
2022-12-25T21:44:03.528Z,10.27
2022-12-25T21:49:06.647Z,10.30
2022-12-25T21:54:11.563Z,10.29
2022-12-25T21:59:20.675Z,10.23
2022-12-25T22:04:24.382Z,10.27
2022-12-25T22:09:28.618Z,10.25
2022-12-25T22:14:54.740Z,10.27
2022-12-25T22:19:59.245Z,10.27
2022-12-25T22:25:05.114Z,10.27
2022-12-25T22:30:09.837Z,10.22
2022-12-25T22:35:13.217Z,10.20
2022-12-25T22:40:18.675Z,10.24
2022-12-25T22:45:21.602Z,10.27
2022-12-25T22:50:24.526Z,10.30
2022-12-25T22:55:29.429Z,10.30
2022-12-25T23:00:32.425Z,10.31
2022-12-25T23:05:35.128Z,10.34
2022-12-25T23:10:39.246Z,10.35
2022-12-25T23:15:41.990Z,10.30
2022-12-25T23:21:02.524Z,10.30
2022-12-25T23:26:09.591Z,10.27
2022-12-25T23:31:12.542Z,10.23
2022-12-25T23:36:15.323Z,10.19
2022-12-25T23:41:19.381Z,10.17
2022-12-25T23:46:22.122Z,10.13
2022-12-25T23:51:24.792Z,10.12
2022-12-25T23:56:28.787Z,10.08
